Scroll down
FLIGHT INFORMATION
United Airlines

UAL1658

At Arrival Gate

KLAS
 KDEN
DATE: 2021-07-22
GATE:  -
GATE DEPARTURE: 02:00
TAKEOFF: 02:18
DATE: 2021-07-22
GATE:  -
LANDING: 03:47
GATE ARRIVAL: 04:01
FLIGHT DATA
Crew: 
Speed: 
472 kts
Altitude: 
37,042 ft
Stage Length: 
545.0 nm
Block Time: 
1.9 hrs
Flight Time: 
1.5 hrs
Fuel Used: 
10,290 lb
Cleared Route: KLAS LEELN GLIAN BACCK ALOLY TTEEA GIDGT NICLE TUKRR BUMMP SNOEE BOWLL ABASN KTOOO SSKII BGDEE TLRID EPPIC RDDVL CLFFF SARAH RW07
TRACK DATA
50,000 ft 1,000 kts
AIRCRAFT INFO AND CUMULATIVE STATS
Aircraft Type: 
B739ERSSW
Registration: 
SELCAL: 
CLFG
MSN/LN: 
32835 / 2817
Operator: 
Total Flights: 
19
Total Block Time: 
43.9 hrs
Total Flight Time: 
37.7 hrs
Total Fuel Used: 
236,361 lb
DATALINK LOG | Newest first | Current as of: 2022-09-28 23:29:05
LABEL SEQUENCE CONTENT Dn/Up
QD013804:01 4.9▼ Dn
QC472503:47▼ Dn
UM2121568KDEN ATIS - DEN ARR INFO U 1753Z. VRB03KT 10SM FEW090 FEW120 SCT200 31/12 A3015 (THREE ZERO ONE FIVE). HAZUS WX INFO FOR CO, KS, NE, WY AVBL FM FLT SVC. EXPC ILS, RNAV, OR VISUAL APPCH, RWY 26, RWY 35L, RWY 35R, MULT RNAV Z APPROACHES IN USE. NOTAMS... RWY 1 6 LEFT 3 4 RIGHT CLOSED. TWY F CLSD BTN TWY WB AND TWY F2 . TWY F CLSD BTN TWY F7 AND TWY F12 . TWY H CLSD BTN TWY A S AND TWY A N . TWY Z CLSD BTN TWY Z3 AND TWY G .. TWY M CLSD SOUTH OF MIKE 2. BIRD ACTIVITY VICINITY ARPT. USE CAUTION FOR UNMANNED AIRCRAFT SYSTEM ACTIVITY 5.5 NAUTICAL MILES NW OF DEN AT OR BELOW 1000 ABOVE GROUND LEVEL. ...ADVS YOU HAVE INFO U.▲ Up
DM791558 ATIS KDEN A▼ Dn
2U1512KDEN 221753Z VRB03KT 10SM FEW090 FEW120 SCT200 31/12 A3015 RMK AO2 SLP113 T03110117 10322 20200 58004▲ Up
2S1556KDEN▼ Dn
QB190302:18▼ Dn
QA004502:00 15.3▼ Dn
2U5316KLAS 221556Z 00000KT 10SM FEW110 SCT160 BKN250 34/16 A2997 RMK AO2 SLP117 T03440161▲ Up
2S5339KLAS▼ Dn
5U4607KDEN 222040Z 05008KT 10SM SCT120 BKN200 28/14 A3016▲ Up
2U4602KDEN 221553Z 00000KT 10SM FEW080 FEW120 SCT200 28/14 A3016 RMK AO2 SLP122 T02830139▲ Up
2U4602KLAS 221556Z 00000KT 10SM FEW110 SCT160 BKN250 34/16 A2997 RMK AO2 SLP117 T03440161▲ Up
5S4634KDEN▼ Dn
2S4633KLAS KDEN▼ Dn
A34542CLEARED TO KDEN VIA GIDGT1 TUKRR BUMMP SSKII2. SQUAWK 4352.▲ Up
UM2123129KLAS ATIS - LAS ATIS INFO A 1556Z. 00000KT 10SM FEW110 SCT160 BKN250 34/16 A2997 (TWO NINER NINER SEVEN). VISUAL APPROACHES IN USE. LANDING RWYS 26L, 19R, 19L. DEPG RWYS 26R, 19R AND 19L. SIMUL APCHS TO CROSSING AND PARALLEL RUNWAYS IN USE, CONVERGING RUNWAY OPERATIONS IN EFFECT. NOTAMS... TWY S CLSD BTN RWY 19L AND TWY E. RY 8R PAPI OTS. CHECK DENSITY ALTITUDE. GC COMBINED ON 121.1, HELICOPTOR CONTROL OPEN ON 118.75. ...ADVS YOU HAVE INFO A.▲ Up
DM793119 ATIS KLAS D▼ Dn
A73118CLEARANCE AVAIL WITHIN 0:25 OF EDT▲ Up
B33118KLAS KDEN UAL1658 N75432 ▼ Dn
Q02916[LINK ACK]▲ Up
Q02916[LINK TEST]▼ Dn


AIRCRAFT HISTORY
FLIGHT DATE FLIGHT NO. ORIGIN DESTINATION CLEARED ROUTE BLOCK TIME FLIGHT TIME FUEL USED PILOT
2022-01-03UAL1535KLAX KIAH KLAX DOCKR WEILR SHAEF PEVEE HOLTZ DOTSS WIILD BLCKD CSTWY CNERY BLH SALOM KOFFA TFD TOTEC ITEMM SSO ALIBY ELP PEQ DIESL STOCK FFUEL ARNNE PPUMP PPIPE MPORT DRLLR PTROL DOMNO SKLER CHUBS RW26R3 hrs2.6 hrs16,029 lbNiklas Graefe
2021-12-28UAL403KDEN KLAX KDEN BRKEM WAKIR TUULO HLTON MTSUI BAYLR BOBBA TEHRU JASSE AREAF ESGEE DNERO SLLRS FLOJO SALYY GLESN ANJLL CAANN BOYEL CRCUS RW25L2.5 hrs2.2 hrs13,579 lbNiklas Graefe
2021-12-24UAL1999KSFO KDEN KSFO TYDYE TRUKN COSMC SYRAH JSICA LUDOH BUMMP SNOEE BOWLL ABASN KTOOO SSKII BGDEE CRAGG NARLE TELLR CELBI RW35L2.2 hrs1.8 hrs12,501 lbDan Downs
2021-09-24UAL123KDEN KSFO COORZ6 VOAXA Q136 RUMPS OAL INYOE DYAMD52.5 hrs2.1 hrs0 lbNiklas Graefe
2021-07-22UAL1658KLAS KDEN KLAS LEELN GLIAN BACCK ALOLY TTEEA GIDGT NICLE TUKRR BUMMP SNOEE BOWLL ABASN KTOOO SSKII BGDEE TLRID EPPIC RDDVL CLFFF SARAH RW071.9 hrs1.5 hrs10,290 lbNiklas Graefe
2021-07-15UAL299KDEN KLAS KDEN BRKEM WAKIR TUULO HLTON MTSUI BAYLR BOBBA TEHRU DVC TYEGR WARKA DUUGG HAANG AALAN CHOWW WOLPH TATUU KRLOZ PRINO RW26L1.8 hrs1.4 hrs9,654 lbNiklas Graefe
2021-07-11UAL1505KBZN KDEN KBZN JAPER BOBKT ZORKE TOOLS BOY TOFUU GNOLA HIPEE FOLSM BBOCO FLATI ELLDO TOTTT YESSS BAACK BABAA HIMOM RNOLD RW34L1.4 hrs1.2 hrs7,858 lbNiklas Graefe
2021-07-11UAL671KDEN KBZN KDEN MUGBE WAZEE LODOE RINKR HERDR TROTO YAMMI DDRTH BOY BZN SITRE RW301.6 hrs1.3 hrs9,145 lbNiklas Graefe
2021-07-07UAL2199KSNA KDEN KSNA STREL DOLLF FINZZ CAHIL ZOOMM SEBBY PLAYY ARCUS YELAH WYZEE BEALE NOOTN BETHL FREDD DICEE BUMMP SNOEE BOWLL ABASN KTOOO SSKII BGDEE TLRID ZATUT LOOOP JIBAT FUZZZ RW262.6 hrs2.3 hrs14,567 lbNiklas Graefe
2021-07-05UAL404KDEN KSNA KDEN TAVRN VONNN TEEBO CONNR WERNR ZAKRY BUGGG BAWER AHOWW ZAINY BLD NATEE FEYLA LRSON GITRR DUUNN CARZZ AASPN KADYN EROCK LUQAS DSNEE JWARD HUKEM RW20R2.3 hrs1.9 hrs12,136 lbNiklas Graefe
2021-07-04UAL1030KOMA KDEN KOMA OBH BRWRY DUNKL KOLSH PLZNR LAWGR PPINT BURRP YUPEE FFFAT DOGGG DRUMM RW35R1.5 hrs1.2 hrs8,609 lbNiklas Graefe
2021-05-02UAL519KELP KOMA KELP CME PNH MMB ICT PWE KOMA2.2 hrs2 hrs14,557 lbChemtrails
2020-12-15UAL51KSPS KELP KSPS SPS POSTE MEGGA VAYTU AJAHO ABI TYEES NOLAN HYMAN TAYOL BYPAS MAF YOGSU INK FEVOM CAVRN DILLI SFL EWM RW26R1.5 hrs1.3 hrs10,744 lbWILLIAM BRIDGES
2020-11-01UAL51KABQ KSPS KABQ DLSOL YUGLU CIANE MNZNO FATTT MOLVE TXO TURKI GANJA SPS RW33L1.4 hrs1.1 hrs9,164 lbWILLIAM BRIDGES
2020-09-06UAL1534KBZN KABQ 1.9 hrs1.6 hrs10,466 lbPete L.
2020-09-06UAL1534KDEN KBZN KDEN MUGBE WAZEE LODOE RINKR HERDR TROTO YAMMI DDRTH BOY LVM RW301.6 hrs1.3 hrs9,519 lbPete L.
2020-08-23UAL430KBOS KDEN KBOS NHANT HURBE STAYC SHAAN HYLND CAM PAYGE PUPPY GONZZ HOZIR DERLO KITOK TANKO FNT DBQ CAPPR JORDY TODDO OBH BRWRY DUNKL KOLSH PLZNR LAWGR PPINT TAPME GRRUB HOOPE RW17R4.1 hrs3.7 hrs22,121 lbPete L.
2020-08-22UAL6321KABQ KBOS KABQ TYILR ROWHO GRZZZ DNIDE FTI GCK SLN IRK JOT GIJ CRL CFHFC CFJGT COHOW SURLY JHW WAYLA VIEEW TYROD MEMMS LOXXE PONCT STOLI MNSTA SEETS DUBLE BASEZ JFUND AUTUM WINTA HRRIS ISLAY LWLND NOLEY RW22L4.4 hrs4.1 hrs25,044 lbPete L.
2020-08-18UAL5984KTPA KABQ KTPA FINKI BAYPO CTY SZW MEI TXK SPS TCC ACH TALLR COLTR YYLEE TACOH RW263.5 hrs3.2 hrs20,378 lbPete L.